createdAt,value
2019-02-06T00:02:17.059Z,22.47
2019-02-06T00:05:20.651Z,22.46
2019-02-06T00:08:24.276Z,22.46
2019-02-06T00:11:27.874Z,22.47
2019-02-06T00:14:31.579Z,22.48
2019-02-06T00:17:35.700Z,22.47
2019-02-06T00:20:39.418Z,22.46
2019-02-06T00:23:42.972Z,22.45
2019-02-06T00:26:46.990Z,22.46
2019-02-06T00:29:50.613Z,22.46
2019-02-06T00:32:55.222Z,22.44
2019-02-06T00:36:00.154Z,22.45
2019-02-06T00:39:06.067Z,22.44
2019-02-06T00:42:11.690Z,22.43
2019-02-06T00:45:15.507Z,22.43
2019-02-06T00:48:19.102Z,22.43
2019-02-06T00:51:22.798Z,22.42
2019-02-06T00:54:26.485Z,22.43
2019-02-06T00:57:30.191Z,22.42
2019-02-06T01:00:33.900Z,22.42
2019-02-06T01:03:37.706Z,22.41
2019-02-06T01:06:41.374Z,22.42
2019-02-06T01:09:45.017Z,22.40
2019-02-06T01:12:50.119Z,22.40
2019-02-06T01:15:53.858Z,22.41
2019-02-06T01:18:57.682Z,22.41
2019-02-06T01:22:01.670Z,22.41
2019-02-06T01:25:06.591Z,22.40
2019-02-06T01:28:13.168Z,22.41
2019-02-06T01:31:23.401Z,22.40
2019-02-06T01:34:27.997Z,22.40
2019-02-06T01:37:32.697Z,22.39
2019-02-06T01:40:37.435Z,22.39
2019-02-06T01:43:41.066Z,22.40
2019-02-06T01:46:44.646Z,22.40
2019-02-06T01:49:48.236Z,22.40
2019-02-06T01:52:52.864Z,22.39
2019-02-06T01:55:56.473Z,22.39
2019-02-06T01:59:00.088Z,22.39
2019-02-06T02:02:03.711Z,22.40
2019-02-06T02:05:07.279Z,22.39
2019-02-06T02:08:11.184Z,22.39
2019-02-06T02:11:14.795Z,22.38
2019-02-06T02:14:18.400Z,22.38
2019-02-06T02:17:22.338Z,22.38
2019-02-06T02:20:26.032Z,22.38
2019-02-06T02:23:29.730Z,22.37
2019-02-06T02:26:33.643Z,22.37
2019-02-06T02:29:37.249Z,22.37
2019-02-06T02:32:41.866Z,22.37
2019-02-06T02:35:45.816Z,22.36
2019-02-06T02:38:49.477Z,22.36
2019-02-06T02:41:53.088Z,22.35
2019-02-06T02:44:56.912Z,22.36
2019-02-06T02:48:00.591Z,22.35
2019-02-06T02:51:04.212Z,22.35
2019-02-06T02:54:08.312Z,22.35
2019-02-06T02:57:12.932Z,22.34
2019-02-06T03:00:22.199Z,22.34
2019-02-06T03:03:45.258Z,22.35
2019-02-06T03:06:48.858Z,22.35
2019-02-06T03:09:54.605Z,22.35
2019-02-06T03:12:58.205Z,22.36
2019-02-06T03:16:01.926Z,22.36
2019-02-06T03:19:05.455Z,22.35
2019-02-06T03:22:09.017Z,22.35
2019-02-06T03:25:13.542Z,22.35
2019-02-06T03:28:17.272Z,22.35
2019-02-06T03:31:20.959Z,22.35
2019-02-06T03:34:24.842Z,22.35
2019-02-06T03:37:28.360Z,22.36
2019-02-06T03:40:31.961Z,22.33
2019-02-06T03:43:35.956Z,22.34
2019-02-06T03:46:39.682Z,22.35
2019-02-06T03:49:43.371Z,22.35
2019-02-06T03:52:47.183Z,22.35
2019-02-06T03:55:50.804Z,22.35
2019-02-06T03:58:54.484Z,22.34
2019-02-06T04:01:58.742Z,22.34
2019-02-06T04:05:02.323Z,22.34
2019-02-06T04:08:05.929Z,22.33
2019-02-06T04:11:09.516Z,22.33
2019-02-06T04:14:13.143Z,22.33
2019-02-06T04:17:16.715Z,22.32
2019-02-06T04:20:20.425Z,22.34
2019-02-06T04:23:24.023Z,22.32
2019-02-06T04:26:27.659Z,22.33
2019-02-06T04:29:31.354Z,22.33
2019-02-06T04:32:34.963Z,22.32
2019-02-06T04:35:39.576Z,22.31
2019-02-06T04:38:44.301Z,22.31
2019-02-06T04:41:47.911Z,22.32
2019-02-06T04:44:51.549Z,22.32
2019-02-06T04:47:55.113Z,22.32
2019-02-06T04:50:59.760Z,22.31
2019-02-06T04:54:03.356Z,22.32
2019-02-06T04:57:09.414Z,22.33
2019-02-06T05:00:18.100Z,22.31
2019-02-06T05:03:21.761Z,22.32
2019-02-06T05:06:25.866Z,22.30
2019-02-06T05:09:29.544Z,22.31
2019-02-06T05:12:33.173Z,22.31
2019-02-06T05:15:38.207Z,22.30
2019-02-06T05:18:41.748Z,22.31
2019-02-06T05:21:45.435Z,22.30
2019-02-06T05:24:50.323Z,22.31
2019-02-06T05:27:53.941Z,22.33
2019-02-06T05:30:57.509Z,22.31
2019-02-06T05:34:01.238Z,22.30
2019-02-06T05:37:04.886Z,22.29
2019-02-06T05:40:08.602Z,22.29
2019-02-06T05:43:13.216Z,22.30
2019-02-06T05:46:16.896Z,22.29
2019-02-06T05:49:20.613Z,22.30
2019-02-06T05:52:24.341Z,22.29
2019-02-06T05:55:27.883Z,22.29
2019-02-06T05:58:31.510Z,22.29
2019-02-06T06:01:35.108Z,22.28
2019-02-06T06:04:38.684Z,22.29
2019-02-06T06:07:45.355Z,22.30
2019-02-06T06:10:48.783Z,22.29
2019-02-06T06:13:52.341Z,22.29
2019-02-06T06:16:55.990Z,22.28
2019-02-06T06:19:59.520Z,22.28
2019-02-06T06:23:03.182Z,22.30
2019-02-06T06:26:06.846Z,22.30
2019-02-06T06:29:10.395Z,22.29
2019-02-06T06:32:14.175Z,22.29
2019-02-06T06:35:18.219Z,22.29
2019-02-06T06:38:21.811Z,22.29
2019-02-06T06:41:27.493Z,22.30
2019-02-06T06:44:32.424Z,22.29
2019-02-06T06:47:36.027Z,22.29
2019-02-06T06:50:39.595Z,22.28
2019-02-06T06:53:43.435Z,22.29
2019-02-06T06:56:47.000Z,22.30
2019-02-06T06:59:51.673Z,22.29
2019-02-06T07:02:55.676Z,22.27
2019-02-06T07:05:59.260Z,22.29
2019-02-06T07:09:03.854Z,22.30
2019-02-06T07:12:07.706Z,22.30
2019-02-06T07:15:16.710Z,22.29
2019-02-06T07:18:21.357Z,22.31
2019-02-06T07:21:25.078Z,22.29
2019-02-06T07:24:28.685Z,22.30
2019-02-06T07:27:32.269Z,22.28
2019-02-06T07:30:36.355Z,22.28
2019-02-06T07:33:40.115Z,22.27
2019-02-06T07:36:43.802Z,22.28
2019-02-06T07:39:47.411Z,22.29
2019-02-06T07:42:51.038Z,22.30
2019-02-06T07:45:54.603Z,22.30
2019-02-06T07:48:58.420Z,22.29
2019-02-06T07:52:02.119Z,22.29
2019-02-06T07:55:05.941Z,22.29
2019-02-06T07:58:09.955Z,22.27
2019-02-06T08:01:13.513Z,22.29
2019-02-06T08:04:18.184Z,22.30
2019-02-06T08:07:22.097Z,22.30
2019-02-06T08:10:28.038Z,22.34
2019-02-06T08:13:32.816Z,22.37
2019-02-06T08:16:37.695Z,22.37
2019-02-06T08:19:41.395Z,22.39
2019-02-06T08:22:45.122Z,22.44
2019-02-06T08:25:50.076Z,22.48
2019-02-06T08:28:53.675Z,22.56
2019-02-06T08:31:58.224Z,22.58
2019-02-06T08:35:04.332Z,22.60
2019-02-06T08:38:08.037Z,22.64
2019-02-06T08:41:11.689Z,22.68
2019-02-06T08:44:15.277Z,22.70
2019-02-06T08:47:18.860Z,22.71
2019-02-06T08:50:22.587Z,22.72
2019-02-06T08:53:26.165Z,22.74
2019-02-06T08:56:29.787Z,22.75
2019-02-06T08:59:36.142Z,22.79
2019-02-06T09:02:38.816Z,22.77
2019-02-06T09:05:42.435Z,22.80
2019-02-06T09:08:46.039Z,22.81
2019-02-06T09:11:49.865Z,22.83
2019-02-06T09:14:53.448Z,22.85
2019-02-06T09:18:02.887Z,22.85
2019-02-06T09:21:06.427Z,22.89
2019-02-06T09:24:10.058Z,22.91
2019-02-06T09:27:13.819Z,22.93
2019-02-06T09:30:25.170Z,22.92
2019-02-06T09:33:29.825Z,22.95
2019-02-06T09:36:33.422Z,22.99
2019-02-06T09:39:37.001Z,23.00
2019-02-06T09:42:40.720Z,22.99
2019-02-06T09:45:44.411Z,23.03
2019-02-06T09:48:47.956Z,23.06
2019-02-06T09:51:51.520Z,23.06
2019-02-06T09:54:55.155Z,22.99
2019-02-06T09:57:58.926Z,22.98
2019-02-06T10:01:02.559Z,22.98
2019-02-06T10:04:06.271Z,22.98
2019-02-06T10:07:09.975Z,22.98
2019-02-06T10:10:18.761Z,22.98
2019-02-06T10:13:22.370Z,22.97
2019-02-06T10:16:25.939Z,22.96
2019-02-06T10:19:29.604Z,22.97
2019-02-06T10:22:33.160Z,22.99
2019-02-06T10:25:36.726Z,22.99
2019-02-06T10:28:40.405Z,22.99
2019-02-06T10:31:43.944Z,23.02
2019-02-06T10:34:47.488Z,23.02
2019-02-06T10:37:51.624Z,23.04
2019-02-06T10:40:55.584Z,23.05
2019-02-06T10:44:00.423Z,23.07
2019-02-06T10:47:03.962Z,23.05
2019-02-06T10:50:08.270Z,23.07
2019-02-06T10:53:11.957Z,23.09
2019-02-06T10:56:15.614Z,23.11
2019-02-06T10:59:19.173Z,23.11
2019-02-06T11:02:22.998Z,23.14
2019-02-06T11:05:30.105Z,23.15
2019-02-06T11:08:33.677Z,23.15
2019-02-06T11:11:37.428Z,23.15
2019-02-06T11:14:41.117Z,23.16
2019-02-06T11:17:45.858Z,23.17
2019-02-06T11:20:49.879Z,23.20
2019-02-06T11:23:53.530Z,23.20
2019-02-06T11:26:57.150Z,23.19
2019-02-06T11:30:02.197Z,23.21
2019-02-06T11:33:05.995Z,23.21
2019-02-06T11:36:09.773Z,23.21
2019-02-06T11:39:19.208Z,23.23
2019-02-06T11:42:24.904Z,23.22
2019-02-06T11:45:30.685Z,23.24
2019-02-06T11:48:34.392Z,23.24
2019-02-06T11:51:38.071Z,23.25
2019-02-06T11:54:41.797Z,23.27
2019-02-06T11:57:45.533Z,23.28
2019-02-06T12:00:58.401Z,23.29
2019-02-06T12:04:02.103Z,23.30
2019-02-06T12:07:05.871Z,23.31
2019-02-06T12:10:14.939Z,23.33
2019-02-06T12:13:18.527Z,23.34
2019-02-06T12:16:22.366Z,23.34
2019-02-06T12:19:26.372Z,23.36
2019-02-06T12:22:30.078Z,23.37
2019-02-06T12:25:34.578Z,23.38
2019-02-06T12:28:38.513Z,23.40
2019-02-06T12:31:42.205Z,23.39
2019-02-06T12:34:45.954Z,23.41
2019-02-06T12:37:50.669Z,23.42
2019-02-06T12:40:54.450Z,23.44
2019-02-06T12:43:59.409Z,23.46
2019-02-06T12:47:04.017Z,23.44
2019-02-06T12:50:08.200Z,23.45
2019-02-06T12:53:12.856Z,23.46
2019-02-06T12:56:16.575Z,23.47
2019-02-06T12:59:20.266Z,23.46
2019-02-06T13:02:25.005Z,23.48
2019-02-06T13:05:30.357Z,23.49
2019-02-06T13:08:34.052Z,23.50
2019-02-06T13:11:37.744Z,23.51
2019-02-06T13:14:41.541Z,23.50
2019-02-06T13:17:46.304Z,23.49
2019-02-06T13:20:51.411Z,23.51
2019-02-06T13:23:55.137Z,23.54
2019-02-06T13:26:58.740Z,23.55
2019-02-06T13:30:02.440Z,23.54
2019-02-06T13:33:06.989Z,23.57
2019-02-06T13:36:11.013Z,23.57
2019-02-06T13:39:14.578Z,23.59
2019-02-06T13:42:18.294Z,23.61
2019-02-06T13:45:24.211Z,23.64
2019-02-06T13:48:29.810Z,23.63
2019-02-06T13:51:33.501Z,23.67
2019-02-06T13:54:37.221Z,23.68
2019-02-06T13:57:40.924Z,23.68
2019-02-06T14:00:44.702Z,23.72
2019-02-06T14:03:48.335Z,23.71
2019-02-06T14:06:57.974Z,23.74
2019-02-06T14:10:02.695Z,23.75
2019-02-06T14:13:08.265Z,23.76
2019-02-06T14:16:11.964Z,23.77
2019-02-06T14:19:16.699Z,23.79
2019-02-06T14:22:20.410Z,23.79
2019-02-06T14:25:45.211Z,23.80
2019-02-06T14:29:37.116Z,23.78
2019-02-06T14:33:31.230Z,23.74
2019-02-06T14:37:18.136Z,23.71
2019-02-06T14:40:40.088Z,23.68
2019-02-06T14:44:01.968Z,23.67
2019-02-06T14:47:40.015Z,23.64
2019-02-06T14:51:25.286Z,23.63
2019-02-06T14:54:44.102Z,23.59
2019-02-06T14:58:18.167Z,23.54
2019-02-06T15:01:53.166Z,23.52
2019-02-06T15:05:32.939Z,23.50
2019-02-06T15:08:57.896Z,23.49
2019-02-06T15:12:42.396Z,23.49
2019-02-06T15:16:13.265Z,23.47
2019-02-06T15:19:45.355Z,23.45
2019-02-06T15:23:32.837Z,23.43
2019-02-06T15:27:20.373Z,23.42
2019-02-06T15:31:19.753Z,23.41
2019-02-06T15:34:50.612Z,23.42
2019-02-06T15:38:05.524Z,23.40
2019-02-06T15:41:38.987Z,23.38
2019-02-06T15:44:58.816Z,23.36
2019-02-06T15:48:31.761Z,23.34
2019-02-06T15:51:58.673Z,23.33
2019-02-06T15:55:24.488Z,23.32
2019-02-06T15:58:50.098Z,23.31
2019-02-06T16:02:35.407Z,23.29
2019-02-06T16:06:23.544Z,23.28
2019-02-06T16:09:44.813Z,23.27
2019-02-06T16:13:29.561Z,23.25
2019-02-06T16:17:09.148Z,23.21
2019-02-06T16:20:52.944Z,23.20
2019-02-06T16:24:36.901Z,23.17
2019-02-06T16:28:25.319Z,23.14
2019-02-06T16:32:13.076Z,23.13
2019-02-06T16:35:50.941Z,23.13
2019-02-06T16:39:10.064Z,23.09
2019-02-06T16:43:04.603Z,23.10
2019-02-06T16:47:04.909Z,23.10
2019-02-06T16:50:24.211Z,23.11
2019-02-06T16:53:48.888Z,23.12
2019-02-06T16:57:21.186Z,23.11
2019-02-06T17:01:05.244Z,23.12
2019-02-06T17:04:47.279Z,23.13
2019-02-06T17:08:33.019Z,23.12
2019-02-06T17:12:33.292Z,23.12
2019-02-06T17:16:36.737Z,23.15
2019-02-06T17:19:50.384Z,23.17
2019-02-06T17:23:25.883Z,23.15
2019-02-06T17:26:53.196Z,23.17
2019-02-06T17:30:13.643Z,23.16
2019-02-06T17:33:58.079Z,23.18
2019-02-06T17:37:29.924Z,23.16
2019-02-06T17:40:43.783Z,23.16
2019-02-06T17:43:58.942Z,23.13
2019-02-06T17:47:39.303Z,23.14
2019-02-06T17:51:19.308Z,23.13
2019-02-06T17:54:44.297Z,23.14
2019-02-06T17:57:49.021Z,23.16
2019-02-06T18:01:12.101Z,23.16
2019-02-06T18:04:18.633Z,23.15
2019-02-06T18:07:22.250Z,23.15
2019-02-06T18:10:25.783Z,23.17
2019-02-06T18:13:29.379Z,23.19
2019-02-06T18:16:32.984Z,23.22
2019-02-06T18:19:38.394Z,23.22
2019-02-06T18:22:42.012Z,23.23
2019-02-06T18:25:45.545Z,23.25
2019-02-06T18:28:49.112Z,23.28
2019-02-06T18:31:52.654Z,23.29
2019-02-06T18:34:56.228Z,23.29
2019-02-06T18:37:59.839Z,23.28
2019-02-06T18:41:03.874Z,23.29
2019-02-06T18:44:07.437Z,23.26
2019-02-06T18:47:13.478Z,23.24
2019-02-06T18:50:19.678Z,23.23
2019-02-06T18:53:23.266Z,23.21
2019-02-06T18:56:26.853Z,23.23
2019-02-06T18:59:30.605Z,23.20
2019-02-06T19:02:34.189Z,23.20
2019-02-06T19:05:38.285Z,23.18
2019-02-06T19:08:42.923Z,23.18
2019-02-06T19:11:46.640Z,23.16
2019-02-06T19:14:50.181Z,23.17
2019-02-06T19:17:53.827Z,23.17
2019-02-06T19:20:57.563Z,23.16
2019-02-06T19:24:01.164Z,23.17
2019-02-06T19:27:04.707Z,23.18
2019-02-06T19:30:16.830Z,23.17
2019-02-06T19:33:20.572Z,23.17
2019-02-06T19:36:24.177Z,23.16
2019-02-06T19:39:27.765Z,23.18
2019-02-06T19:42:31.294Z,23.19
2019-02-06T19:45:34.864Z,23.19
2019-02-06T19:48:38.465Z,23.20
2019-02-06T19:51:42.196Z,23.21
2019-02-06T19:54:46.263Z,23.22
2019-02-06T19:57:50.222Z,23.21
2019-02-06T20:00:53.779Z,23.20
2019-02-06T20:03:58.332Z,23.19
2019-02-06T20:07:01.886Z,23.19
2019-02-06T20:10:08.856Z,23.22
2019-02-06T20:13:14.536Z,23.21
2019-02-06T20:16:17.756Z,23.21
2019-02-06T20:19:21.506Z,23.20
2019-02-06T20:22:25.072Z,23.20
2019-02-06T20:25:29.719Z,23.20
2019-02-06T20:28:33.301Z,23.19
2019-02-06T20:31:36.890Z,23.17
2019-02-06T20:34:40.607Z,23.14
2019-02-06T20:37:44.317Z,23.11
2019-02-06T20:40:48.325Z,23.08
2019-02-06T20:43:52.954Z,23.06
2019-02-06T20:46:56.558Z,23.04
2019-02-06T20:50:00.324Z,23.03
2019-02-06T20:53:03.974Z,22.99
2019-02-06T20:56:07.591Z,22.98
2019-02-06T20:59:11.288Z,22.96
2019-02-06T21:02:14.881Z,22.95
2019-02-06T21:05:18.491Z,22.94
2019-02-06T21:08:22.085Z,22.92
2019-02-06T21:11:25.697Z,22.94
2019-02-06T21:14:29.308Z,22.90
2019-02-06T21:17:32.831Z,22.90
2019-02-06T21:20:36.396Z,22.89
2019-02-06T21:23:41.139Z,22.88
2019-02-06T21:26:46.011Z,22.88
2019-02-06T21:29:49.686Z,22.88
2019-02-06T21:32:53.263Z,22.87
2019-02-06T21:35:56.871Z,22.85
2019-02-06T21:39:00.471Z,22.84
2019-02-06T21:42:04.178Z,22.81
2019-02-06T21:45:08.479Z,22.81
2019-02-06T21:48:12.194Z,22.81
2019-02-06T21:51:16.041Z,22.78
2019-02-06T21:54:19.633Z,22.78
2019-02-06T21:57:23.216Z,22.77
2019-02-06T22:00:32.249Z,22.76
2019-02-06T22:03:37.907Z,22.74
2019-02-06T22:06:41.488Z,22.72
2019-02-06T22:09:46.227Z,22.71
2019-02-06T22:12:49.834Z,22.70
2019-02-06T22:15:53.539Z,22.70
2019-02-06T22:19:06.255Z,22.67
2019-02-06T22:22:16.126Z,22.68
2019-02-06T22:25:19.816Z,22.67
2019-02-06T22:28:23.416Z,22.66
2019-02-06T22:31:27.042Z,22.66
2019-02-06T22:34:30.627Z,22.65
2019-02-06T22:37:34.233Z,22.65
2019-02-06T22:40:39.162Z,22.64
2019-02-06T22:43:42.728Z,22.64
2019-02-06T22:46:46.415Z,22.64
2019-02-06T22:49:49.992Z,22.64
2019-02-06T22:52:53.608Z,22.63
2019-02-06T22:55:57.193Z,22.62
2019-02-06T22:59:00.779Z,22.62
2019-02-06T23:02:04.492Z,22.61
2019-02-06T23:05:08.086Z,22.61
2019-02-06T23:08:13.761Z,22.60
2019-02-06T23:11:17.357Z,22.61
2019-02-06T23:14:20.948Z,22.59
2019-02-06T23:17:24.672Z,22.58
2019-02-06T23:20:28.271Z,22.58
2019-02-06T23:23:31.872Z,22.57
2019-02-06T23:26:35.459Z,22.56
2019-02-06T23:29:39.008Z,22.55
2019-02-06T23:32:42.578Z,22.54
2019-02-06T23:35:46.183Z,22.53
2019-02-06T23:38:49.807Z,22.53
2019-02-06T23:41:53.486Z,22.53
2019-02-06T23:44:57.109Z,22.52
2019-02-06T23:48:00.715Z,22.51
2019-02-06T23:51:04.294Z,22.51
2019-02-06T23:54:07.937Z,22.50
2019-02-06T23:57:11.520Z,22.50
